Time;durP1;ratioP1;P1;durP2;ratioP2;P2;SDS_P1;SDS_P2;PMS_P1;PMS_P2;Temp;Humidity;BMP_temperature;BMP_pressure;BME280_temperature;BME280_humidity;BME280_pressure;Samples;Min_cycle;Max_cycle;Signal;HPM_P1;HPM_P2
2022/05/31 00:02:19;;;;;;;4.23;2.50;;;;;;;6.41;100.00;96175.88;5072674;28;20552;-76
2022/05/31 00:04:46;;;;;;;3.97;2.47;;;;;;;6.26;100.00;96136.88;5089541;28;20498;-76
2022/05/31 00:07:13;;;;;;;3.87;1.90;;;;;;;6.43;100.00;96157.97;5082550;28;20446;-76
2022/05/31 00:09:40;;;;;;;5.80;2.70;;;;;;;6.08;100.00;96122.13;5090474;28;20526;-76
2022/05/31 00:12:07;;;;;;;4.03;2.47;;;;;;;6.14;100.00;96128.78;5073583;28;20555;-76
2022/05/31 00:14:34;;;;;;;5.60;2.87;;;;;;;6.22;100.00;96146.44;5072416;28;20541;-76
2022/05/31 00:17:01;;;;;;;5.30;3.90;;;;;;;6.20;100.00;96151.22;5072447;28;20471;-75
2022/05/31 00:19:28;;;;;;;4.10;3.60;;;;;;;6.28;100.00;96161.00;5072222;28;20541;-76
2022/05/31 00:22:11;;;;;;;4.47;4.07;;;;;;;6.26;100.00;96146.59;5073576;28;20493;-76
2022/05/31 00:24:39;;;;;;;5.47;3.50;;;;;;;6.05;100.00;96117.50;5072240;28;20424;-76
2022/05/31 00:27:07;;;;;;;5.87;3.20;;;;;;;6.06;100.00;96119.03;5055496;28;20480;-76
2022/05/31 00:29:34;;;;;;;4.50;2.40;;;;;;;5.62;100.00;96073.44;5072162;28;20541;-76
2022/05/31 00:32:04;;;;;;;3.40;2.50;;;;;;;6.17;100.00;96149.97;5071923;28;20468;-76
2022/05/31 00:34:32;;;;;;;4.43;2.93;;;;;;;6.14;100.00;96153.22;5071923;28;20473;-76
2022/05/31 00:37:00;;;;;;;4.60;2.43;;;;;;;5.73;100.00;96140.28;5068826;28;20458;-76
2022/05/31 00:39:26;;;;;;;2.93;2.47;;;;;;;5.49;100.00;96092.63;5092268;28;20455;-76
2022/05/31 00:42:05;;;;;;;3.10;2.80;;;;;;;5.67;100.00;96099.53;5075138;28;20474;-75
2022/05/31 00:44:34;;;;;;;6.70;3.60;;;;;;;5.95;100.00;96142.13;5083088;28;20489;-76
2022/05/31 00:47:04;;;;;;;7.07;5.00;;;;;;;6.10;100.00;96149.63;5071698;28;20454;-76
2022/05/31 00:49:36;;;;;;;7.53;4.90;;;;;;;6.15;100.00;96146.88;5071730;28;20473;-76
2022/05/31 00:52:14;;;;;;;9.40;5.23;;;;;;;6.03;100.00;96138.03;5071634;28;20487;-76
2022/05/31 00:54:47;;;;;;;6.77;5.10;;;;;;;5.75;100.00;96103.28;5071662;28;21015;-75
2022/05/31 00:57:14;;;;;;;7.07;5.57;;;;;;;5.58;100.00;96109.16;5072943;28;20429;-76
2022/05/31 00:59:56;;;;;;;6.50;5.00;;;;;;;5.91;100.00;96147.22;5071457;28;20456;-76
2022/05/31 01:02:24;;;;;;;4.83;4.33;;;;;;;5.76;100.00;96123.97;5072926;28;20788;-76
2022/05/31 01:04:58;;;;;;;6.60;4.00;;;;;;;5.95;100.00;96149.25;5072733;28;20863;-76
2022/05/31 01:07:26;;;;;;;3.97;3.60;;;;;;;5.69;100.00;96126.22;5071460;28;20523;-76
2022/05/31 01:09:53;;;;;;;4.17;3.77;;;;;;;5.52;100.00;96102.50;5071317;28;20796;-76
2022/05/31 01:12:42;;;;;;;5.87;4.40;;;;;;;5.49;100.00;96142.44;5072620;28;20570;-76
2022/05/31 01:15:27;;;;;;;4.40;3.67;;;;;;;5.48;100.00;96133.81;5071695;28;20407;-75
2022/05/31 01:18:13;;;;;;;3.83;3.27;;;;;;;5.23;100.00;96103.72;5090087;28;20856;-76
2022/05/31 01:21:00;;;;;;;3.17;2.97;;;;;;;5.68;100.00;96158.75;5091532;28;20510;-76
2022/05/31 01:23:46;;;;;;;5.70;2.90;;;;;;;5.12;100.00;96125.19;5071029;28;20467;-76
2022/05/31 01:26:38;;;;;;;3.70;2.53;;;;;;;5.29;100.00;96160.16;5070916;28;20527;-76
2022/05/31 01:29:10;;;;;;;5.20;3.10;;;;;;;5.51;100.00;96161.28;5071089;28;20448;-76
2022/05/31 01:31:44;;;;;;;3.87;3.40;;;;;;;5.67;100.00;96159.84;5071041;28;20482;-76
2022/05/31 01:34:18;;;;;;;7.13;3.13;;;;;;;5.61;100.00;96153.19;5072202;28;20476;-76
2022/05/31 01:36:48;;;;;;;2.80;2.60;;;;;;;5.45;100.00;96157.97;5070257;28;20447;-75
2022/05/31 01:39:30;;;;;;;4.07;2.97;;;;;;;5.46;100.00;96140.41;5070610;28;20921;-76
2022/05/31 01:42:03;;;;;;;2.43;2.23;;;;;;;5.48;100.00;96164.50;5070685;28;21002;-76
2022/05/31 01:44:34;;;;;;;3.10;2.37;;;;;;;5.24;100.00;96141.94;5070790;28;20477;-75
2022/05/31 01:47:02;;;;;;;3.00;2.33;;;;;;;5.37;100.00;96153.47;5072884;28;20466;-75
2022/05/31 01:49:35;;;;;;;2.20;2.10;;;;;;;5.48;100.00;96165.28;5091078;28;20531;-76
2022/05/31 01:52:03;;;;;;;3.03;2.13;;;;;;;5.16;100.00;96113.03;5057009;28;21093;-76
2022/05/31 01:54:30;;;;;;;3.80;3.27;;;;;;;5.43;100.00;96164.59;5070870;28;20959;-76
2022/05/31 01:57:02;;;;;;;5.47;2.10;;;;;;;5.17;100.00;96111.97;5070998;28;20994;-76
2022/05/31 01:59:33;;;;;;;5.77;1.93;;;;;;;5.32;100.00;96127.34;5071001;28;20474;-76
2022/05/31 02:02:02;;;;;;;3.57;2.43;;;;;;;5.29;100.00;96151.53;5070456;28;21074;-75
2022/05/31 02:04:29;;;;;;;2.17;2.00;;;;;;;5.31;100.00;96149.38;5070241;28;20479;-76
2022/05/31 02:07:11;;;;;;;2.93;1.93;;;;;;;5.06;100.00;96129.75;5070163;28;20479;-75
2022/05/31 02:09:40;;;;;;;2.47;2.27;;;;;;;4.83;100.00;96136.03;5070152;28;20450;-76
2022/05/31 02:12:11;;;;;;;2.90;2.03;;;;;;;5.03;100.00;96164.41;5069944;28;20522;-76
2022/05/31 02:14:45;;;;;;;4.53;2.13;;;;;;;5.07;100.00;96164.59;5070167;28;20436;-76
2022/05/31 02:17:11;;;;;;;5.03;2.80;;;;;;;5.08;100.00;96155.69;5070172;28;20437;-75
2022/05/31 02:19:56;;;;;;;4.40;2.13;;;;;;;5.00;100.00;96149.28;5071267;28;20459;-75
2022/05/31 02:22:30;;;;;;;4.73;2.00;;;;;;;5.06;100.00;96148.09;5067879;28;20459;-75
2022/05/31 02:24:57;;;;;;;3.73;2.30;;;;;;;4.96;100.00;96135.22;5073454;28;20439;-75
2022/05/31 02:27:24;;;;;;;2.87;2.50;;;;;;;5.13;100.00;96164.19;5090413;28;20905;-75
2022/05/31 02:29:50;;;;;;;4.40;2.40;;;;;;;4.84;100.00;96140.19;5073501;28;20529;-75
2022/05/31 02:32:17;;;;;;;3.10;2.40;;;;;;;4.41;100.00;96080.31;5090112;28;20466;-75
2022/05/31 02:34:46;;;;;;;2.27;2.10;;;;;;;4.69;100.00;96115.09;5073410;28;20459;-75
2022/05/31 02:37:16;;;;;;;10.00;2.33;;;;;;;5.07;100.00;96161.97;5073694;28;20453;-75
2022/05/31 02:39:43;;;;;;;1.67;1.57;;;;;;;4.95;100.00;96163.28;5090008;28;20558;-75
2022/05/31 02:42:11;;;;;;;2.27;2.07;;;;;;;4.99;100.00;96152.97;5073178;28;20456;-75
2022/05/31 02:44:38;;;;;;;3.03;2.30;;;;;;;4.80;100.00;96134.75;5064217;28;20439;-75
2022/05/31 02:47:07;;;;;;;3.47;2.17;;;;;;;4.75;100.00;96153.19;5053028;28;20440;-75
2022/05/31 02:49:35;;;;;;;2.20;1.77;;;;;;;4.63;100.00;96139.81;5069731;28;21007;-76
2022/05/31 02:52:03;;;;;;;5.17;2.60;;;;;;;4.51;100.00;96127.22;5069767;28;20988;-75
2022/05/31 02:54:30;;;;;;;2.73;2.53;;;;;;;4.65;100.00;96127.97;5069643;28;20438;-75
2022/05/31 02:57:15;;;;;;;3.10;2.63;;;;;;;4.67;100.00;96140.78;5070293;28;20423;-75
2022/05/31 03:00:00;;;;;;;2.80;2.50;;;;;;;4.64;100.00;96146.59;5070945;28;20462;-75
2022/05/31 03:02:45;;;;;;;2.47;2.27;;;;;;;4.51;100.00;96108.88;5070965;28;20539;-75
2022/05/31 03:05:15;;;;;;;2.53;2.10;;;;;;;4.60;100.00;96117.63;5069622;28;20527;-76
2022/05/31 03:08:12;;;;;;;3.73;2.40;;;;;;;4.25;100.00;96118.28;5060857;28;20456;-75
2022/05/31 03:10:57;;;;;;;4.13;2.27;;;;;;;4.34;100.00;96114.72;5084251;28;20420;-75
2022/05/31 03:13:27;;;;;;;2.43;2.23;;;;;;;4.13;100.00;96132.63;5069324;28;20970;-75
2022/05/31 03:15:59;;;;;;;6.40;2.30;;;;;;;3.78;100.00;96068.66;5069453;28;20467;-75
2022/05/31 03:18:34;;;;;;;3.67;2.67;;;;;;;3.59;100.00;96077.63;5069454;28;20432;-75
2022/05/31 03:21:11;;;;;;;2.60;2.40;;;;;;;3.99;100.00;96125.81;5069247;28;20495;-75
2022/05/31 03:23:53;;;;;;;6.80;3.07;;;;;;;4.13;100.00;96100.47;5069614;28;20501;-75
2022/05/31 03:26:22;;;;;;;5.43;3.70;;;;;;;3.90;100.00;96076.03;5083010;28;20508;-75
2022/05/31 03:28:49;;;;;;;7.13;4.27;;;;;;;4.35;100.00;96137.19;5070623;28;20476;-75
2022/05/31 03:31:16;;;;;;;8.47;5.13;;;;;;;4.13;100.00;96121.38;5070525;28;20428;-75
2022/05/31 03:33:43;;;;;;;6.50;5.37;;;;;;;4.29;100.00;96132.38;5070117;28;21063;-76
2022/05/31 03:36:11;;;;;;;8.17;5.20;;;;;;;3.89;100.00;96111.09;5070477;28;20440;-75
2022/05/31 03:39:07;;;;;;;8.33;5.23;;;;;;;4.08;100.00;96156.25;5066894;28;20876;-75
2022/05/31 03:41:35;;;;;;;4.90;3.50;;;;;;;4.31;100.00;96140.69;5070329;28;20454;-75
2022/05/31 03:44:02;;;;;;;6.30;3.10;;;;;;;4.35;100.00;96154.75;5069087;28;20834;-75
2022/05/31 03:46:47;;;;;;;2.80;2.60;;;;;;;4.00;100.00;96164.75;5070709;28;20533;-75
2022/05/31 03:49:33;;;;;;;4.03;2.13;;;;;;;4.19;100.00;96154.25;5083948;28;20431;-75
2022/05/31 03:52:04;;;;;;;3.20;2.57;;;;;;;4.07;100.00;96148.72;5069674;28;20569;-75
2022/05/31 03:54:36;;;;;;;2.67;2.10;;;;;;;4.01;100.00;96140.19;5069038;28;20535;-75
2022/05/31 03:57:15;;;;;;;2.53;2.33;;;;;;;4.09;100.00;96167.50;5069580;28;20541;-75
2022/05/31 03:59:44;;;;;;;4.60;3.13;;;;;;;4.19;100.00;96161.31;5069204;28;20565;-75
2022/05/31 04:02:12;;;;;;;2.80;2.00;;;;;;;4.38;100.00;96167.25;5059484;28;20845;-76
2022/05/31 04:04:39;;;;;;;2.17;2.07;;;;;;;4.52;100.00;96162.00;5072633;28;20484;-76
2022/05/31 04:07:07;;;;;;;2.20;2.00;;;;;;;4.45;100.00;96154.56;5056175;28;20479;-76
2022/05/31 04:09:34;;;;;;;3.03;2.43;;;;;;;4.27;100.00;96135.25;5072416;28;20854;-76
2022/05/31 04:12:04;;;;;;;2.73;2.40;;;;;;;4.55;100.00;96162.22;5072965;28;20486;-76
2022/05/31 04:15:03;;;;;;;2.40;2.20;;;;;;;4.40;100.00;96142.34;5061546;28;21034;-76
2022/05/31 04:17:31;;;;;;;2.97;2.70;;;;;;;4.46;100.00;96166.59;5056010;28;20505;-76
2022/05/31 04:19:58;;;;;;;3.57;3.27;;;;;;;4.58;100.00;96177.34;5072338;28;21099;-75
2022/05/31 04:22:25;;;;;;;3.13;2.93;;;;;;;4.64;100.00;96178.78;5073909;28;20550;-77
2022/05/31 04:25:01;;;;;;;2.83;2.53;;;;;;;4.88;100.00;96169.97;5072302;28;20448;-77
2022/05/31 04:27:54;;;;;;;2.37;2.17;;;;;;;4.89;100.00;96174.91;5072369;28;20949;-77
2022/05/31 04:30:43;;;;;;;2.87;2.33;;;;;;;5.15;100.00;96169.91;5073614;28;20415;-77
2022/05/31 04:33:33;;;;;;;5.90;2.53;;;;;;;5.58;100.00;96193.84;5069519;28;20478;-77
2022/05/31 04:36:05;;;;;;;3.83;2.83;;;;;;;5.95;100.00;96189.38;5072101;28;20432;-77
2022/05/31 04:38:33;;;;;;;2.37;2.17;;;;;;;5.91;100.00;96162.19;5055752;28;20792;-77
2022/05/31 04:41:16;;;;;;;2.83;2.60;;;;;;;6.29;100.00;96201.94;5073344;28;20546;-77
2022/05/31 04:44:04;;;;;;;3.37;2.57;;;;;;;6.60;100.00;96180.13;5072871;28;20942;-77
2022/05/31 04:46:34;;;;;;;4.40;2.90;;;;;;;6.63;100.00;96159.25;5071862;28;20443;-77
2022/05/31 04:49:28;;;;;;;4.53;2.80;;;;;;;7.10;100.00;96201.59;5070696;28;20966;-77
2022/05/31 04:51:55;;;;;;;5.10;2.90;;;;;;;7.14;100.00;96164.94;5055384;28;20460;-77
2022/05/31 04:54:28;;;;;;;2.93;2.63;;;;;;;7.46;100.00;96176.88;5088748;28;20457;-77
2022/05/31 04:57:15;;;;;;;9.00;4.37;;;;;;;7.57;100.00;96197.31;5068117;28;20449;-77
2022/05/31 04:59:43;;;;;;;7.13;4.83;;;;;;;7.44;100.00;96171.16;5071974;28;20464;-77
2022/05/31 05:02:12;;;;;;;4.63;3.90;;;;;;;7.29;100.00;96153.97;5072326;28;20467;-77
2022/05/31 05:04:44;;;;;;;4.73;2.83;;;;;;;7.79;100.00;96170.06;5057666;28;20442;-77
2022/05/31 05:07:22;;;;;;;5.33;3.60;;;;;;;8.06;100.00;96190.00;5091869;28;20463;-77
2022/05/31 05:09:49;;;;;;;6.90;4.20;;;;;;;8.22;100.00;96192.91;5073655;28;20426;-78
2022/05/31 05:12:24;;;;;;;6.53;4.33;;;;;;;8.24;100.00;96167.78;5087902;28;20491;-77
2022/05/31 05:14:59;;;;;;;5.10;3.37;;;;;;;8.56;100.00;96195.47;5062217;28;20594;-77
2022/05/31 05:17:26;;;;;;;6.57;3.53;;;;;;;8.76;100.00;96195.84;5080565;28;20531;-77
2022/05/31 05:19:53;;;;;;;3.73;3.20;;;;;;;8.91;100.00;96200.56;5076534;28;20554;-77
2022/05/31 05:22:20;;;;;;;6.30;3.90;;;;;;;8.64;100.00;96167.53;5091907;28;20471;-77
2022/05/31 05:24:47;;;;;;;4.50;3.63;;;;;;;8.82;100.00;96157.69;5091578;28;20467;-77
2022/05/31 05:27:20;;;;;;;4.33;3.93;;;;;;;8.98;100.00;96186.91;5080722;28;20442;-77
2022/05/31 05:33:01;;;;;;;3.70;3.40;;;;;;;8.85;100.00;96162.31;5069871;28;20506;-77
2022/05/31 05:35:30;;;;;;;3.30;3.00;;;;;;;9.15;100.00;96198.13;5070985;28;20541;-77
2022/05/31 05:38:06;;;;;;;3.20;3.00;;;;;;;9.08;100.00;96176.78;5058048;28;20448;-77
2022/05/31 05:40:46;;;;;;;3.57;3.27;;;;;;;8.95;100.00;96185.69;5070725;28;20460;-77
2022/05/31 05:43:14;;;;;;;3.40;3.00;;;;;;;9.10;100.00;96155.34;5070722;28;20456;-77
2022/05/31 05:45:52;;;;;;;3.60;3.30;;;;;;;9.19;100.00;96143.63;5070730;28;20480;-75
2022/05/31 05:48:19;;;;;;;6.00;3.00;;;;;;;9.12;100.00;96151.28;5070726;28;20445;-74
2022/05/31 05:50:45;;;;;;;3.03;2.70;;;;;;;9.45;100.00;96185.66;5070601;28;20440;-74
2022/05/31 05:53:30;;;;;;;2.57;2.37;;;;;;;9.31;100.00;96158.75;5072118;28;20459;-74
2022/05/31 05:56:18;;;;;;;4.40;2.60;;;;;;;9.97;100.00;96174.66;5050550;28;20832;-75
2022/05/31 05:59:03;;;;;;;3.93;2.57;;;;;;;10.43;100.00;96188.69;5072311;28;20412;-74
2022/05/31 06:01:58;;;;;;;2.37;2.17;;;;;;;10.64;100.00;96181.44;5071627;28;20531;-74
2022/05/31 06:05:07;;;;;;;3.70;2.80;;;;;;;11.00;100.00;96192.34;5059326;28;20455;-74
2022/05/31 06:07:47;;;;;;;3.03;2.60;;;;;;;10.39;100.00;96142.84;5070393;28;20512;-74
2022/05/31 06:10:22;;;;;;;3.13;2.93;;;;;;;11.08;100.00;96170.28;5070357;28;20424;-74
2022/05/31 06:12:59;;;;;;;2.40;2.20;;;;;;;11.28;100.00;96160.66;5069349;28;20472;-76
2022/05/31 06:15:30;;;;;;;3.00;2.80;;;;;;;11.65;100.00;96179.88;5070394;28;20814;-75
2022/05/31 06:18:01;;;;;;;3.73;3.43;;;;;;;11.79;100.00;96186.38;5070251;28;20479;-75
2022/05/31 06:20:29;;;;;;;5.30;3.27;;;;;;;11.92;100.00;96171.19;5055335;28;20463;-78
2022/05/31 06:22:57;;;;;;;4.90;2.47;;;;;;;12.22;100.00;96163.66;5071227;28;20488;-77
2022/05/31 06:25:24;;;;;;;3.10;2.80;;;;;;;12.33;100.00;96154.09;5071264;28;20448;-77
2022/05/31 06:27:59;;;;;;;5.57;3.03;;;;;;;12.29;100.00;96190.34;5072195;28;20447;-77
2022/05/31 06:30:28;;;;;;;3.27;3.07;;;;;;;12.15;100.00;96187.31;5072105;28;20444;-77
2022/05/31 06:32:55;;;;;;;2.17;2.07;;;;;;;12.58;100.00;96183.88;5071380;28;21070;-77
2022/05/31 06:35:21;;;;;;;6.33;2.57;;;;;;;13.10;100.00;96190.00;5071185;28;20451;-78
2022/05/31 06:37:57;;;;;;;3.20;2.80;;;;;;;13.25;100.00;96199.84;5071295;28;20428;-77
2022/05/31 06:40:24;;;;;;;3.33;2.50;;;;;;;13.07;100.00;96164.13;5071973;28;20489;-78
2022/05/31 06:43:14;;;;;;;3.23;2.37;;;;;;;13.55;100.00;96171.66;5090885;28;21021;-78
2022/05/31 06:46:08;;;;;;;3.40;2.43;;;;;;;13.56;100.00;96167.88;5058647;28;21253;-77
2022/05/31 06:48:56;;;;;;;2.83;2.63;;;;;;;13.21;100.00;96180.38;5064400;28;20467;-77
2022/05/31 06:57:48;;;;;;;3.30;3.00;;;;;;;13.82;99.25;96179.75;5072558;28;20511;-77
2022/05/31 07:00:32;;;;;;;2.70;2.50;;;;;;;14.13;99.04;96162.88;5070491;28;20464;-78
2022/05/31 07:03:00;;;;;;;5.33;2.77;;;;;;;13.99;96.58;96159.94;5070828;28;20469;-77
2022/05/31 07:05:32;;;;;;;2.10;1.90;;;;;;;14.53;94.28;96180.28;5062890;28;20447;-78
2022/05/31 07:08:00;;;;;;;2.57;2.10;;;;;;;14.32;92.30;96133.59;5074628;28;20428;-78
2022/05/31 07:10:53;;;;;;;2.00;1.90;;;;;;;14.69;91.97;96168.44;5076903;28;20439;-77
2022/05/31 07:13:55;;;;;;;3.03;2.60;;;;;;;14.64;92.48;96154.63;5040142;28;20454;-77
2022/05/31 07:16:51;;;;;;;3.30;2.60;;;;;;;15.03;88.77;96187.94;5092145;28;20810;-77
2022/05/31 07:19:18;;;;;;;4.57;2.93;;;;;;;14.55;90.54;96173.50;5092799;28;20420;-77
2022/05/31 07:21:46;;;;;;;2.87;2.67;;;;;;;14.82;89.82;96157.56;5091229;28;20463;-77
2022/05/31 07:24:13;;;;;;;2.50;2.37;;;;;;;15.02;89.60;96175.75;5074420;28;20951;-76
2022/05/31 07:27:26;;;;;;;3.03;2.80;;;;;;;15.41;86.39;96159.56;5082779;28;20485;-77
2022/05/31 07:30:00;;;;;;;4.23;2.60;;;;;;;15.04;87.64;96162.84;5071153;28;20491;-77
2022/05/31 07:32:29;;;;;;;3.30;3.00;;;;;;;14.98;87.34;96150.22;5071547;28;20468;-77
2022/05/31 07:35:15;;;;;;;2.40;2.20;;;;;;;15.08;90.08;96158.34;5071992;28;20430;-77
2022/05/31 07:37:43;;;;;;;4.13;2.90;;;;;;;15.51;87.66;96136.84;5082037;28;20447;-78
2022/05/31 07:40:10;;;;;;;3.03;2.83;;;;;;;15.82;85.37;96155.13;5079092;28;20444;-76
2022/05/31 07:42:37;;;;;;;3.20;2.73;;;;;;;15.34;85.43;96136.25;5095620;28;20512;-78
2022/05/31 07:45:05;;;;;;;4.60;3.23;;;;;;;15.70;87.11;96123.38;5066554;28;20539;-77
2022/05/31 07:47:32;;;;;;;2.50;2.30;;;;;;;15.61;86.15;96131.66;5075100;28;20437;-77
2022/05/31 07:49:59;;;;;;;3.00;2.57;;;;;;;16.18;90.18;96137.63;5074841;28;20444;-77
2022/05/31 07:52:45;;;;;;;6.37;4.50;;;;;;;16.07;82.06;96103.97;5075427;28;20460;-80
2022/05/31 07:55:32;;;;;;;3.23;2.77;;;;;;;16.79;81.76;96165.59;5076856;28;20776;-78
2022/05/31 07:58:33;;;;;;;2.50;2.20;;;;;;;16.86;77.29;96162.25;5040337;28;20446;-78
2022/05/31 08:01:35;;;;;;;4.07;2.00;;;;;;;17.72;77.95;96166.19;5073332;28;20468;-78
2022/05/31 08:04:19;;;;;;;2.80;2.60;;;;;;;17.33;76.55;96125.88;5097436;28;20453;-78
2022/05/31 08:06:46;;;;;;;3.33;2.73;;;;;;;17.31;75.93;96141.50;5078501;28;20467;-78
2022/05/31 08:09:12;;;;;;;4.10;2.47;;;;;;;17.36;75.20;96141.16;5095996;28;20949;-78
2022/05/31 08:11:39;;;;;;;3.07;2.87;;;;;;;17.05;76.54;96124.56;5081183;28;20445;-77
2022/05/31 08:14:06;;;;;;;2.50;2.30;;;;;;;17.32;77.51;96159.09;5083410;28;20467;-78
2022/05/31 08:16:34;;;;;;;4.70;2.90;;;;;;;16.80;75.14;96120.97;5075153;28;20991;-79
2022/05/31 08:19:03;;;;;;;4.60;2.53;;;;;;;17.28;75.89;96160.97;5075025;28;20429;-78
2022/05/31 08:21:31;;;;;;;2.63;2.37;;;;;;;17.03;73.75;96152.81;5093019;28;20524;-77
2022/05/31 08:24:07;;;;;;;4.20;2.60;;;;;;;17.36;73.94;96160.66;5065100;28;20456;-78
2022/05/31 08:26:53;;;;;;;6.03;2.53;;;;;;;17.85;74.85;96137.19;5073456;28;20494;-77
2022/05/31 08:29:20;;;;;;;4.00;2.30;;;;;;;18.22;70.31;96156.41;5077593;28;20431;-78
2022/05/31 08:31:47;;;;;;;2.20;2.00;;;;;;;17.95;67.89;96166.66;5096268;28;20997;-78
2022/05/31 08:34:13;;;;;;;2.70;2.17;;;;;;;17.85;66.83;96127.25;5074103;28;20787;-77
2022/05/31 08:36:40;;;;;;;3.53;2.30;;;;;;;18.66;68.41;96160.66;5057744;28;20439;-77
2022/05/31 08:39:06;;;;;;;3.83;2.00;;;;;;;18.97;65.42;96150.34;5074375;28;20475;-78
2022/05/31 08:41:42;;;;;;;2.40;2.20;;;;;;;18.26;63.49;96135.75;5074707;28;20494;-78
2022/05/31 08:44:34;;;;;;;5.73;4.33;;;;;;;17.72;66.12;96142.88;5074434;28;20464;-77
2022/05/31 08:47:01;;;;;;;2.40;2.20;;;;;;;17.91;63.38;96157.84;5069499;28;20519;-78
2022/05/31 08:52:35;;;;;;;3.60;2.10;;;;;;;19.02;63.08;96131.19;5090501;28;20991;-78
2022/05/31 08:58:03;;;;;;;5.80;1.93;;;;;;;19.48;58.10;96142.53;5074914;28;20826;-78
2022/05/31 09:00:34;;;;;;;2.50;1.97;;;;;;;19.02;55.93;96156.06;5081771;28;20463;-77
2022/05/31 09:03:09;;;;;;;2.30;1.90;;;;;;;19.45;56.16;96137.19;5094436;28;20517;-77
2022/05/31 09:05:43;;;;;;;2.87;2.13;;;;;;;19.25;54.25;96139.56;5088047;28;20489;-78
2022/05/31 09:08:34;;;;;;;3.93;2.37;;;;;;;19.17;57.29;96132.69;5076448;28;20440;-78
2022/05/31 09:11:14;;;;;;;1.83;1.73;;;;;;;18.73;52.43;96125.88;5082285;28;20447;-78
2022/05/31 09:13:47;;;;;;;3.07;1.57;;;;;;;19.63;54.78;96143.31;5073546;28;21078;-77
2022/05/31 09:16:51;;;;;;;3.67;1.93;;;;;;;19.99;52.57;96135.84;5088985;28;20472;-77
2022/05/31 09:19:29;;;;;;;4.00;2.30;;;;;;;20.21;51.53;96144.56;5094643;28;20435;-78
2022/05/31 09:21:57;;;;;;;1.73;1.63;;;;;;;20.10;50.59;96100.13;5095350;28;20514;-78
2022/05/31 09:24:23;;;;;;;1.93;1.83;;;;;;;19.98;52.78;96102.09;5078063;28;20574;-77
2022/05/31 09:27:02;;;;;;;6.30;1.87;;;;;;;20.51;51.07;96137.84;5083910;28;20475;-78
2022/05/31 09:29:54;;;;;;;2.10;1.70;;;;;;;20.23;50.84;96131.50;5073411;28;20452;-78
2022/05/31 09:32:39;;;;;;;3.37;1.90;;;;;;;19.13;49.90;96099.78;5074428;28;21183;-77
2022/05/31 09:35:18;;;;;;;3.60;1.90;;;;;;;19.18;50.24;96099.38;5073869;28;20440;-78
2022/05/31 09:38:10;;;;;;;3.33;1.60;;;;;;;20.16;48.89;96120.03;5054073;28;20445;-78
2022/05/31 09:40:45;;;;;;;3.13;1.60;;;;;;;19.91;47.80;96129.00;5076228;28;20428;-78
2022/05/31 09:43:27;;;;;;;5.10;1.63;;;;;;;19.98;45.67;96120.91;5095254;28;20449;-78
2022/05/31 09:46:08;;;;;;;2.10;1.30;;;;;;;20.09;44.10;96107.41;5074402;28;20820;-78
2022/05/31 09:48:50;;;;;;;5.20;1.60;;;;;;;20.70;45.17;96115.03;5074053;28;20451;-78
2022/05/31 09:51:17;;;;;;;6.80;2.23;;;;;;;19.94;45.91;96112.13;5068591;28;20463;-78
2022/05/31 09:57:06;;;;;;;1.80;1.63;;;;;;;20.05;45.90;96102.09;5092335;28;20418;-78
2022/05/31 09:59:58;;;;;;;3.03;2.47;;;;;;;19.91;47.00;96099.47;5074937;28;20420;-77
2022/05/31 10:03:11;;;;;;;1.80;1.63;;;;;;;20.20;43.61;96116.19;5080649;28;20440;-78
2022/05/31 10:05:39;;;;;;;4.40;1.70;;;;;;;19.95;44.50;96059.19;5086022;28;21075;-78
2022/05/31 10:08:16;;;;;;;2.20;1.70;;;;;;;20.30;44.20;96090.41;5073097;28;20974;-78
2022/05/31 10:10:47;;;;;;;3.37;1.80;;;;;;;20.05;43.39;96120.88;5074527;28;20463;-78
2022/05/31 10:13:35;;;;;;;1.80;1.67;;;;;;;19.10;45.94;96057.66;5073667;28;20456;-78
2022/05/31 10:16:12;;;;;;;1.77;1.60;;;;;;;19.37;44.51;96090.91;5073429;28;20448;-77
2022/05/31 10:18:50;;;;;;;4.17;2.40;;;;;;;20.17;45.72;96105.47;5073168;28;20436;-77
2022/05/31 10:21:33;;;;;;;1.60;1.50;;;;;;;20.39;45.15;96082.66;5073008;28;20551;-78
2022/05/31 10:24:06;;;;;;;2.77;1.70;;;;;;;20.70;44.38;96104.28;5072937;28;20472;-78
2022/05/31 10:27:05;;;;;;;2.07;1.57;;;;;;;20.36;43.99;96111.06;5073972;28;20532;-78
2022/05/31 10:30:09;;;;;;;4.00;1.60;;;;;;;20.95;44.43;96107.53;5073178;28;20448;-78
2022/05/31 10:32:46;;;;;;;2.87;1.57;;;;;;;20.98;43.86;96082.56;5073601;28;20480;-78
2022/05/31 10:35:18;;;;;;;2.53;1.87;;;;;;;20.91;42.59;96083.38;5075969;28;20921;-78
2022/05/31 10:38:05;;;;;;;2.37;2.00;;;;;;;20.76;45.21;96097.34;5078911;28;20477;-78
2022/05/31 10:40:52;;;;;;;5.43;1.80;;;;;;;20.38;44.14;96089.94;5075669;28;20526;-78
2022/05/31 10:43:43;;;;;;;3.20;1.80;;;;;;;21.20;44.20;96089.22;5088313;28;20452;-77
2022/05/31 10:46:13;;;;;;;1.43;1.33;;;;;;;21.43;42.43;96095.91;5060957;28;20428;-78
2022/05/31 10:48:46;;;;;;;2.80;1.77;;;;;;;20.95;42.17;96067.19;5071838;28;20497;-78
2022/05/31 10:51:16;;;;;;;1.60;1.50;;;;;;;21.12;41.08;96087.78;5055359;28;20524;-78
2022/05/31 10:54:01;;;;;;;2.40;1.67;;;;;;;21.16;44.43;96079.66;5071133;28;20529;-77
2022/05/31 10:56:37;;;;;;;2.47;1.83;;;;;;;21.56;43.08;96077.31;5071187;28;20460;-77
2022/05/31 10:59:16;;;;;;;3.23;1.73;;;;;;;21.06;40.07;96035.59;5084199;28;20455;-77
2022/05/31 11:02:30;;;;;;;2.53;1.70;;;;;;;19.65;42.17;96051.72;5073467;28;20533;-77
2022/05/31 11:05:07;;;;;;;2.90;1.87;;;;;;;20.82;41.83;96075.00;5065802;28;20867;-78
2022/05/31 11:13:59;;;;;;;1.40;1.30;;;;;;;20.67;40.86;96039.44;5071648;28;20487;-78
2022/05/31 11:16:50;;;;;;;2.10;1.90;;;;;;;21.56;42.50;96072.69;5092741;28;20481;-78
2022/05/31 11:19:20;;;;;;;2.17;1.60;;;;;;;21.52;40.46;96075.44;5076556;28;20440;-78
2022/05/31 11:22:12;;;;;;;2.43;2.23;;;;;;;21.26;40.41;96035.78;5076576;28;20463;-77
2022/05/31 11:25:01;;;;;;;1.60;1.50;;;;;;;21.77;40.27;96077.81;5077159;28;20547;-78
2022/05/31 11:27:46;;;;;;;1.70;1.60;;;;;;;21.55;39.33;96063.09;5077809;28;20512;-78
2022/05/31 11:30:17;;;;;;;1.73;1.63;;;;;;;21.30;39.79;96044.56;5076450;28;20452;-78
2022/05/31 11:33:08;;;;;;;2.93;1.43;;;;;;;22.21;39.85;96054.50;5075902;28;20456;-77
2022/05/31 11:36:06;;;;;;;1.73;1.43;;;;;;;22.03;40.33;96048.56;5092606;28;20453;-78
2022/05/31 11:38:51;;;;;;;3.20;2.17;;;;;;;21.71;39.73;96047.13;5075790;28;20444;-77
2022/05/31 11:41:44;;;;;;;1.73;1.57;;;;;;;21.91;40.35;95995.31;5089541;28;20542;-78
2022/05/31 11:44:26;;;;;;;1.77;1.40;;;;;;;22.50;39.55;96045.97;5061113;28;20524;-78
2022/05/31 11:47:09;;;;;;;2.20;1.90;;;;;;;21.87;41.40;96035.75;5075216;28;20435;-78
2022/05/31 11:49:54;;;;;;;2.23;1.80;;;;;;;22.35;41.61;96040.03;5076631;28;20470;-78
2022/05/31 11:52:40;;;;;;;2.40;2.20;;;;;;;21.89;41.43;96046.09;5074560;28;20460;-78
2022/05/31 11:55:26;;;;;;;5.80;1.63;;;;;;;22.26;40.16;96024.41;5077598;28;20522;-76
2022/05/31 11:58:05;;;;;;;1.60;1.50;;;;;;;22.95;39.09;96030.91;5094638;28;20415;-76
2022/05/31 12:00:40;;;;;;;2.63;2.10;;;;;;;23.35;41.17;96038.25;5094834;28;20423;-75
2022/05/31 12:03:17;;;;;;;1.83;1.33;;;;;;;22.85;40.17;96048.06;5093132;28;20504;-76
2022/05/31 12:05:50;;;;;;;2.37;1.87;;;;;;;22.60;40.23;96043.09;5076428;28;20990;-75
2022/05/31 12:08:29;;;;;;;1.70;1.60;;;;;;;22.48;40.89;96021.34;5094405;28;20420;-75
2022/05/31 12:11:02;;;;;;;1.60;1.50;;;;;;;22.81;39.65;96039.25;5093223;28;20481;-76
2022/05/31 12:13:30;;;;;;;1.60;1.50;;;;;;;22.46;40.48;96005.59;5076216;28;21057;-76
2022/05/31 12:15:57;;;;;;;2.33;1.97;;;;;;;22.06;41.55;96028.97;5076340;28;20438;-75
2022/05/31 12:18:30;;;;;;;1.80;1.53;;;;;;;22.35;40.24;96031.97;5093020;28;20452;-76
2022/05/31 12:21:10;;;;;;;1.70;1.57;;;;;;;22.98;39.03;96002.38;5091728;28;20448;-76
2022/05/31 12:23:52;;;;;;;6.20;1.97;;;;;;;23.05;39.32;96014.94;5073790;28;20517;-76
2022/05/31 12:26:38;;;;;;;1.83;1.70;;;;;;;23.57;37.69;96015.81;5078926;28;20861;-78
2022/05/31 12:29:04;;;;;;;1.67;1.57;;;;;;;22.84;39.19;96022.28;5095651;28;20493;-78
2022/05/31 12:31:34;;;;;;;2.10;1.50;;;;;;;23.00;40.21;96019.66;5095641;28;20953;-78
2022/05/31 12:34:33;;;;;;;1.87;1.67;;;;;;;22.36;40.54;96015.38;5096193;28;20934;-78
2022/05/31 12:37:09;;;;;;;2.90;1.60;;;;;;;21.87;40.52;96024.97;5094841;28;20460;-78
2022/05/31 12:39:37;;;;;;;3.13;1.60;;;;;;;22.23;40.68;95949.03;5094852;28;20542;-78